<?xml version="1.0" encoding="UTF-8" standalone="no" ?>
<gpx xmlns="http://www.topografix.com/GPX/1/1" xmlns:xsi="http://www.w3.org/2001/XMLSchema-instance" xsi:schemaLocation="http://www.topografix.com/GPX/1/1 http://www.topografix.com/GPX/1/1/gpx.xsd" version="1.1" creator="VisuGPX - https://www.visugpx.com">
  <metadata>
    <name>Etape 2 Férel - Les Moûtiers</name>
    <desc><![CDATA[Randonnée vélo Rennes - Hendaye, empruntant la Vélodyssée à partir de Saint-Brevin-Les-Pins. ]]></desc>
  </metadata>
  <trk>
    <name><![CDATA[Sequence 16]]></name>
    <trkseg>
      <trkpt lat="47.2729" lon="-2.19838">
        <ele>14</ele>
        <time>2016-07-22T07:36:29Z</time>
      </trkpt>
      <trkpt lat="47.2729" lon="-2.1984">
        <ele>13</ele>
        <time>2016-07-22T07:36:33Z</time>
      </trkpt>
      <trkpt lat="47.27289" lon="-2.19845">
        <ele>13</ele>
        <time>2016-07-22T07:36:35Z</time>
      </trkpt>
      <trkpt lat="47.27278" lon="-2.19855">
        <ele>11</ele>
        <time>2016-07-22T07:36:40Z</time>
      </trkpt>
      <trkpt lat="47.27261" lon="-2.19861">
        <ele>10</ele>
        <time>2016-07-22T07:36:45Z</time>
      </trkpt>
      <trkpt lat="47.27243" lon="-2.19871">
        <ele>11</ele>
        <time>2016-07-22T07:36:50Z</time>
      </trkpt>
      <trkpt lat="47.27235" lon="-2.19893">
        <ele>9</ele>
        <time>2016-07-22T07:36:55Z</time>
      </trkpt>
      <trkpt lat="47.27238" lon="-2.19922">
        <ele>10</ele>
        <time>2016-07-22T07:37:00Z</time>
      </trkpt>
      <trkpt lat="47.27245" lon="-2.19958">
        <ele>12</ele>
        <time>2016-07-22T07:37:05Z</time>
      </trkpt>
      <trkpt lat="47.2725" lon="-2.19991">
        <ele>13</ele>
        <time>2016-07-22T07:37:10Z</time>
      </trkpt>
      <trkpt lat="47.27254" lon="-2.20026">
        <ele>12</ele>
        <time>2016-07-22T07:37:15Z</time>
      </trkpt>
      <trkpt lat="47.27258" lon="-2.2006">
        <ele>12</ele>
        <time>2016-07-22T07:37:20Z</time>
      </trkpt>
      <trkpt lat="47.27263" lon="-2.20096">
        <ele>12</ele>
        <time>2016-07-22T07:37:25Z</time>
      </trkpt>
      <trkpt lat="47.27269" lon="-2.20134">
        <ele>12</ele>
        <time>2016-07-22T07:37:30Z</time>
      </trkpt>
      <trkpt lat="47.27272" lon="-2.2017">
        <ele>11</ele>
        <time>2016-07-22T07:37:35Z</time>
      </trkpt>
      <trkpt lat="47.27277" lon="-2.20214">
        <ele>9</ele>
        <time>2016-07-22T07:37:41Z</time>
      </trkpt>
      <trkpt lat="47.27286" lon="-2.20237">
        <ele>10</ele>
        <time>2016-07-22T07:37:45Z</time>
      </trkpt>
      <trkpt lat="47.27295" lon="-2.2027">
        <ele>11</ele>
        <time>2016-07-22T07:37:50Z</time>
      </trkpt>
      <trkpt lat="47.273" lon="-2.20307">
        <ele>11</ele>
        <time>2016-07-22T07:37:55Z</time>
      </trkpt>
      <trkpt lat="47.27306" lon="-2.20355">
        <ele>12</ele>
        <time>2016-07-22T07:38:03Z</time>
      </trkpt>
      <trkpt lat="47.27308" lon="-2.20365">
        <ele>12</ele>
        <time>2016-07-22T07:38:05Z</time>
      </trkpt>
      <trkpt lat="47.27312" lon="-2.2039">
        <ele>13</ele>
        <time>2016-07-22T07:38:10Z</time>
      </trkpt>
      <trkpt lat="47.27316" lon="-2.20414">
        <ele>14</ele>
        <time>2016-07-22T07:38:15Z</time>
      </trkpt>
      <trkpt lat="47.27322" lon="-2.20437">
        <ele>15</ele>
        <time>2016-07-22T07:38:20Z</time>
      </trkpt>
      <trkpt lat="47.27324" lon="-2.20461">
        <ele>18</ele>
        <time>2016-07-22T07:38:25Z</time>
      </trkpt>
      <trkpt lat="47.27329" lon="-2.20498">
        <ele>19</ele>
        <time>2016-07-22T07:38:30Z</time>
      </trkpt>
      <trkpt lat="47.27333" lon="-2.20544">
        <ele>19</ele>
        <time>2016-07-22T07:38:36Z</time>
      </trkpt>
      <trkpt lat="47.27343" lon="-2.20601">
        <ele>25</ele>
        <time>2016-07-22T07:38:44Z</time>
      </trkpt>
      <trkpt lat="47.27342" lon="-2.20606">
        <ele>27</ele>
        <time>2016-07-22T07:38:45Z</time>
      </trkpt>
      <trkpt lat="47.27348" lon="-2.20642">
        <ele>35</ele>
        <time>2016-07-22T07:38:51Z</time>
      </trkpt>
      <trkpt lat="47.27352" lon="-2.20679">
        <ele>30</ele>
        <time>2016-07-22T07:38:56Z</time>
      </trkpt>
      <trkpt lat="47.27357" lon="-2.20708">
        <ele>29</ele>
        <time>2016-07-22T07:39:00Z</time>
      </trkpt>
      <trkpt lat="47.27364" lon="-2.20768">
        <ele>28</ele>
        <time>2016-07-22T07:39:09Z</time>
      </trkpt>
      <trkpt lat="47.27368" lon="-2.20804">
        <ele>26</ele>
        <time>2016-07-22T07:39:14Z</time>
      </trkpt>
      <trkpt lat="47.27368" lon="-2.20812">
        <ele>25</ele>
        <time>2016-07-22T07:39:15Z</time>
      </trkpt>
      <trkpt lat="47.27371" lon="-2.20866">
        <ele>21</ele>
        <time>2016-07-22T07:39:23Z</time>
      </trkpt>
      <trkpt lat="47.27371" lon="-2.20877">
        <ele>21</ele>
        <time>2016-07-22T07:39:25Z</time>
      </trkpt>
      <trkpt lat="47.27376" lon="-2.20909">
        <ele>25</ele>
        <time>2016-07-22T07:39:30Z</time>
      </trkpt>
      <trkpt lat="47.2738" lon="-2.2095">
        <ele>28</ele>
        <time>2016-07-22T07:39:36Z</time>
      </trkpt>
      <trkpt lat="47.27386" lon="-2.20978">
        <ele>29</ele>
        <time>2016-07-22T07:39:40Z</time>
      </trkpt>
      <trkpt lat="47.27395" lon="-2.21021">
        <ele>32</ele>
        <time>2016-07-22T07:39:46Z</time>
      </trkpt>
      <trkpt lat="47.27399" lon="-2.21053">
        <ele>32</ele>
        <time>2016-07-22T07:39:51Z</time>
      </trkpt>
      <trkpt lat="47.27403" lon="-2.21102">
        <ele>31</ele>
        <time>2016-07-22T07:39:58Z</time>
      </trkpt>
      <trkpt lat="47.27406" lon="-2.21116">
        <ele>30</ele>
        <time>2016-07-22T07:40:00Z</time>
      </trkpt>
      <trkpt lat="47.27405" lon="-2.21154">
        <ele>30</ele>
        <time>2016-07-22T07:40:05Z</time>
      </trkpt>
      <trkpt lat="47.27412" lon="-2.2119">
        <ele>30</ele>
        <time>2016-07-22T07:40:10Z</time>
      </trkpt>
      <trkpt lat="47.27422" lon="-2.21241">
        <ele>25</ele>
        <time>2016-07-22T07:40:17Z</time>
      </trkpt>
      <trkpt lat="47.27425" lon="-2.21262">
        <ele>24</ele>
        <time>2016-07-22T07:40:20Z</time>
      </trkpt>
      <trkpt lat="47.27431" lon="-2.21296">
        <ele>26</ele>
        <time>2016-07-22T07:40:25Z</time>
      </trkpt>
      <trkpt lat="47.27429" lon="-2.21327">
        <ele>25</ele>
        <time>2016-07-22T07:40:30Z</time>
      </trkpt>
      <trkpt lat="47.27433" lon="-2.21364">
        <ele>25</ele>
        <time>2016-07-22T07:40:38Z</time>
      </trkpt>
      <trkpt lat="47.27435" lon="-2.21379">
        <ele>23</ele>
        <time>2016-07-22T07:40:40Z</time>
      </trkpt>
      <trkpt lat="47.27437" lon="-2.21405">
        <ele>24</ele>
        <time>2016-07-22T07:40:45Z</time>
      </trkpt>
      <trkpt lat="47.27446" lon="-2.21446">
        <ele>22</ele>
        <time>2016-07-22T07:40:54Z</time>
      </trkpt>
      <trkpt lat="47.27447" lon="-2.21453">
        <ele>21</ele>
        <time>2016-07-22T07:40:55Z</time>
      </trkpt>
      <trkpt lat="47.27454" lon="-2.21495">
        <ele>20</ele>
        <time>2016-07-22T07:41:01Z</time>
      </trkpt>
      <trkpt lat="47.27457" lon="-2.21539">
        <ele>24</ele>
        <time>2016-07-22T07:41:07Z</time>
      </trkpt>
      <trkpt lat="47.2746" lon="-2.2156">
        <ele>26</ele>
        <time>2016-07-22T07:41:10Z</time>
      </trkpt>
      <trkpt lat="47.27466" lon="-2.21589">
        <ele>24</ele>
        <time>2016-07-22T07:41:15Z</time>
      </trkpt>
      <trkpt lat="47.27471" lon="-2.21643">
        <ele>19</ele>
        <time>2016-07-22T07:41:24Z</time>
      </trkpt>
      <trkpt lat="47.27473" lon="-2.21661">
        <ele>18</ele>
        <time>2016-07-22T07:41:27Z</time>
      </trkpt>
      <trkpt lat="47.27476" lon="-2.21678">
        <ele>17</ele>
        <time>2016-07-22T07:41:30Z</time>
      </trkpt>
      <trkpt lat="47.27485" lon="-2.21723">
        <ele>20</ele>
        <time>2016-07-22T07:41:37Z</time>
      </trkpt>
      <trkpt lat="47.2749" lon="-2.21753">
        <ele>22</ele>
        <time>2016-07-22T07:41:42Z</time>
      </trkpt>
      <trkpt lat="47.27494" lon="-2.2177">
        <ele>24</ele>
        <time>2016-07-22T07:41:45Z</time>
      </trkpt>
      <trkpt lat="47.27493" lon="-2.21774">
        <ele>27</ele>
        <time>2016-07-22T07:41:52Z</time>
      </trkpt>
      <trkpt lat="47.27494" lon="-2.21774">
        <ele>27</ele>
        <time>2016-07-22T07:41:55Z</time>
      </trkpt>
      <trkpt lat="47.27494" lon="-2.21778">
        <ele>27</ele>
        <time>2016-07-22T07:42:00Z</time>
      </trkpt>
      <trkpt lat="47.27497" lon="-2.21787">
        <ele>23</ele>
        <time>2016-07-22T07:42:05Z</time>
      </trkpt>
      <trkpt lat="47.2751" lon="-2.21784">
        <ele>23</ele>
        <time>2016-07-22T07:42:11Z</time>
      </trkpt>
      <trkpt lat="47.27525" lon="-2.21781">
        <ele>21</ele>
        <time>2016-07-22T07:42:15Z</time>
      </trkpt>
      <trkpt lat="47.27547" lon="-2.21776">
        <ele>19</ele>
        <time>2016-07-22T07:42:20Z</time>
      </trkpt>
      <trkpt lat="47.27577" lon="-2.21766">
        <ele>13</ele>
        <time>2016-07-22T07:42:26Z</time>
      </trkpt>
      <trkpt lat="47.27598" lon="-2.21761">
        <ele>10</ele>
        <time>2016-07-22T07:42:30Z</time>
      </trkpt>
      <trkpt lat="47.27622" lon="-2.21756">
        <ele>11</ele>
        <time>2016-07-22T07:42:35Z</time>
      </trkpt>
      <trkpt lat="47.27659" lon="-2.21746">
        <ele>5</ele>
        <time>2016-07-22T07:42:44Z</time>
      </trkpt>
      <trkpt lat="47.27662" lon="-2.21745">
        <ele>6</ele>
        <time>2016-07-22T07:42:45Z</time>
      </trkpt>
      <trkpt lat="47.27667" lon="-2.21742">
        <ele>7</ele>
        <time>2016-07-22T07:42:50Z</time>
      </trkpt>
    </trkseg>
  </trk>
</gpx>